Time;durP1;ratioP1;P1;durP2;ratioP2;P2;SDS_P1;SDS_P2;PMS_P1;PMS_P2;Temp;Humidity;BMP_temperature;BMP_pressure;BME280_temperature;BME280_humidity;BME280_pressure;Samples;Min_cycle;Max_cycle;Signal;HPM_P1;HPM_P2
2023/08/09 00:00:37;;;;;;;;;;;;;;;23.51;55.44;97252.61;590000;240;68358;-71
2023/08/09 00:03:04;;;;;;;;;;;;;;;23.52;55.89;97256.91;590082;240;68570;-77
2023/08/09 00:18:17;;;;;;;;;;;;;;;23.61;54.27;97270.52;623879;224;34626;-70
2023/08/09 00:20:45;;;;;;;;;;;;;;;23.50;53.88;97269.80;624957;227;64550;-70
2023/08/09 00:23:14;;;;;;;;;;;;;;;23.49;53.46;97274.37;624955;227;62241;-70
2023/08/09 00:25:43;;;;;;;;;;;;;;;23.49;52.25;97270.89;624928;227;64194;-77
2023/08/09 00:28:10;;;;;;;;;;;;;;;23.49;53.41;97270.89;624952;227;63325;-77
2023/08/09 00:30:38;;;;;;;;;;;;;;;23.49;53.53;97260.16;624977;227;64431;-77
2023/08/09 00:33:05;;;;;;;;;;;;;;;23.48;53.72;97264.70;624938;225;64131;-77
2023/08/09 00:35:34;;;;;;;;;;;;;;;23.49;54.72;97257.48;624940;227;62761;-77
2023/08/09 00:38:02;;;;;;;;;;;;;;;23.49;54.77;97265.52;624823;227;63082;-77
2023/08/09 00:40:29;;;;;;;;;;;;;;;23.48;54.12;97263.91;625047;227;63971;-77
2023/08/09 00:42:57;;;;;;;;;;;;;;;23.47;53.08;97263.11;625043;227;64890;-78
2023/08/09 00:45:24;;;;;;;;;;;;;;;23.47;52.94;97257.74;625030;227;64368;-77
2023/08/09 00:47:52;;;;;;;;;;;;;;;23.48;54.50;97258.54;625021;227;64190;-77
2023/08/09 00:50:20;;;;;;;;;;;;;;;23.48;55.49;97253.17;625042;225;65012;-77
2023/08/09 00:52:47;;;;;;;;;;;;;;;23.48;54.97;97258.54;625060;227;64555;-77
2023/08/09 00:55:15;;;;;;;;;;;;;;;23.46;52.96;97258.02;625051;227;64115;-77
2023/08/09 00:57:43;;;;;;;;;;;;;;;23.48;55.33;97255.86;625050;227;64859;-77
2023/08/09 01:00:10;;;;;;;;;;;;;;;23.47;55.32;97251.59;625009;227;64415;-77
2023/08/09 01:02:39;;;;;;;;;;;;;;;23.46;55.23;97256.16;617711;227;65601;-77
2023/08/09 01:05:07;;;;;;;;;;;;;;;23.45;55.48;97259.11;625037;227;62989;-77
2023/08/09 01:07:45;;;;;;;;;;;;;;;23.45;54.99;97253.73;625035;227;64416;-77
2023/08/09 01:10:14;;;;;;;;;;;;;;;23.44;54.73;97258.31;624815;227;64357;-77
2023/08/09 01:12:43;;;;;;;;;;;;;;;23.45;55.32;97257.22;623981;227;66053;-77
2023/08/09 01:15:12;;;;;;;;;;;;;;;23.45;55.00;97264.47;625028;227;63204;-70
2023/08/09 01:17:41;;;;;;;;;;;;;;;23.43;52.56;97259.38;626560;226;64144;-70
2023/08/09 01:20:12;;;;;;;;;;;;;;;23.43;54.91;97256.69;627066;226;63778;-70
2023/08/09 01:22:40;;;;;;;;;;;;;;;23.45;54.99;97264.47;627068;226;63328;-69
2023/08/09 01:25:08;;;;;;;;;;;;;;;23.43;54.94;97245.96;627034;226;64170;-77
2023/08/09 01:27:39;;;;;;;;;;;;;;;23.43;55.37;97253.21;627055;226;63076;-77
2023/08/09 01:30:08;;;;;;;;;;;;;;;23.42;52.61;97256.98;627071;226;65403;-77
2023/08/09 01:32:38;;;;;;;;;;;;;;;23.41;52.37;97252.72;627061;226;61949;-77
2023/08/09 01:35:07;;;;;;;;;;;;;;;23.42;51.91;97254.30;627069;226;65090;-77
2023/08/09 01:37:42;;;;;;;;;;;;;;;23.42;54.99;97240.89;627033;226;64663;-77
2023/08/09 01:40:11;;;;;;;;;;;;;;;23.42;54.42;97244.38;626850;226;62084;-70
2023/08/09 01:42:40;;;;;;;;;;;;;;;23.40;52.01;97246.53;627071;226;64816;-70
2023/08/09 01:45:10;;;;;;;;;;;;;;;23.41;51.77;97247.35;627062;226;62446;-70
2023/08/09 01:47:38;;;;;;;;;;;;;;;23.42;53.78;97248.94;627057;226;64216;-70
2023/08/09 01:50:07;;;;;;;;;;;;;;;23.41;54.76;97250.03;627042;226;64933;-70
2023/08/09 01:52:35;;;;;;;;;;;;;;;23.40;54.37;97253.78;627064;226;62282;-70
2023/08/09 01:55:04;;;;;;;;;;;;;;;23.39;53.00;97249.51;627066;226;64157;-70
2023/08/09 01:57:32;;;;;;;;;;;;;;;23.40;55.06;97259.14;627057;226;64855;-70
2023/08/09 01:59:59;;;;;;;;;;;;;;;23.39;53.79;97255.66;627057;226;64476;-71
2023/08/09 02:02:27;;;;;;;;;;;;;;;23.39;53.39;97254.87;627074;226;62059;-70
2023/08/09 02:04:55;;;;;;;;;;;;;;;23.39;55.05;97257.55;627050;226;65030;-76
2023/08/09 02:07:23;;;;;;;;;;;;;;;23.38;53.60;97253.25;627036;226;64564;-77
2023/08/09 02:09:50;;;;;;;;;;;;;;;23.39;54.77;97254.87;627084;226;64225;-77
2023/08/09 02:12:18;;;;;;;;;;;;;;;23.38;54.58;97247.89;627084;226;65312;-76
2023/08/09 02:14:45;;;;;;;;;;;;;;;23.37;54.46;97254.34;627040;226;65233;-76
2023/08/09 02:17:13;;;;;;;;;;;;;;;23.37;52.02;97265.07;627008;226;64292;-76
2023/08/09 02:19:40;;;;;;;;;;;;;;;23.37;54.22;97265.86;627045;226;62756;-76
2023/08/09 02:22:08;;;;;;;;;;;;;;;23.37;52.65;97257.03;627082;226;62537;-77
2023/08/09 02:24:35;;;;;;;;;;;;;;;23.37;53.12;97262.39;627060;226;62114;-70
2023/08/09 02:27:03;;;;;;;;;;;;;;;23.36;51.55;97260.80;627044;226;63636;-70
2023/08/09 02:29:31;;;;;;;;;;;;;;;23.35;51.23;97262.66;627064;226;64425;-70
2023/08/09 02:31:58;;;;;;;;;;;;;;;23.36;51.16;97263.48;627041;226;62181;-70
2023/08/09 02:34:26;;;;;;;;;;;;;;;23.38;54.40;97263.98;627049;226;63700;-70
2023/08/09 02:36:54;;;;;;;;;;;;;;;23.36;54.17;97261.59;627060;226;62328;-70
2023/08/09 02:39:21;;;;;;;;;;;;;;;23.35;54.53;97268.02;627069;226;64188;-70
2023/08/09 02:41:49;;;;;;;;;;;;;;;23.34;54.38;97274.47;627049;226;65283;-70
2023/08/09 02:44:16;;;;;;;;;;;;;;;23.35;52.52;97277.95;627025;226;64444;-70
2023/08/09 02:46:44;;;;;;;;;;;;;;;23.35;54.51;97269.91;627055;226;64157;-70
2023/08/09 02:49:11;;;;;;;;;;;;;;;23.34;54.19;97268.31;627055;226;62713;-70
2023/08/09 02:51:39;;;;;;;;;;;;;;;23.33;54.06;97269.41;627043;226;62296;-70
2023/08/09 02:54:07;;;;;;;;;;;;;;;23.32;51.42;97273.15;627081;226;64266;-70
2023/08/09 02:56:34;;;;;;;;;;;;;;;23.32;50.92;97275.83;627062;226;62772;-76
2023/08/09 02:59:02;;;;;;;;;;;;;;;23.33;52.61;97274.77;627036;226;64410;-77
2023/08/09 03:01:29;;;;;;;;;;;;;;;23.32;51.20;97278.52;627081;226;64195;-77
2023/08/09 03:03:57;;;;;;;;;;;;;;;23.32;50.84;97281.20;627042;226;64945;-77
2023/08/09 03:06:25;;;;;;;;;;;;;;;23.33;53.54;97282.81;627058;226;62247;-77
2023/08/09 03:08:53;;;;;;;;;;;;;;;23.32;53.64;97281.98;627074;226;64204;-77
2023/08/09 03:11:22;;;;;;;;;;;;;;;23.31;53.95;97291.12;626653;226;63670;-77
2023/08/09 03:13:50;;;;;;;;;;;;;;;23.31;53.95;97287.65;621675;226;64597;-77
2023/08/09 03:16:18;;;;;;;;;;;;;;;23.30;53.97;97289.53;622752;226;61683;-77
2023/08/09 03:18:46;;;;;;;;;;;;;;;23.31;53.55;97288.45;627054;226;64853;-77
2023/08/09 03:21:14;;;;;;;;;;;;;;;23.30;54.04;97289.53;627031;226;64981;-77
2023/08/09 03:23:43;;;;;;;;;;;;;;;23.29;52.29;97293.28;627045;226;64640;-77
2023/08/09 03:26:10;;;;;;;;;;;;;;;23.29;54.20;97290.59;627031;226;62690;-77
2023/08/09 03:28:39;;;;;;;;;;;;;;;23.29;53.63;97293.28;627048;226;64525;-77
2023/08/09 03:31:08;;;;;;;;;;;;;;;23.29;52.33;97297.84;627062;226;64349;-77
2023/08/09 03:33:38;;;;;;;;;;;;;;;23.30;51.91;97288.71;627062;226;43344;-77
2023/08/09 03:36:06;;;;;;;;;;;;;;;23.29;51.83;97298.64;622013;226;64976;-77
2023/08/09 03:38:34;;;;;;;;;;;;;;;23.29;52.21;97301.32;619862;229;64181;-77
2023/08/09 03:41:02;;;;;;;;;;;;;;;23.29;53.97;97300.53;619889;229;62646;-77
2023/08/09 03:43:30;;;;;;;;;;;;;;;23.26;50.08;97302.68;613721;229;65445;-77
2023/08/09 03:45:57;;;;;;;;;;;;;;;23.28;52.05;97312.34;619905;229;64153;-77
2023/08/09 03:48:26;;;;;;;;;;;;;;;23.28;51.97;97309.66;619888;229;62592;-70
2023/08/09 03:50:53;;;;;;;;;;;;;;;23.27;53.03;97308.84;619875;229;64469;-70
2023/08/09 03:53:21;;;;;;;;;;;;;;;23.25;50.38;97309.13;619956;229;64210;-70
2023/08/09 03:55:48;;;;;;;;;;;;;;;23.26;50.64;97310.72;619894;229;64852;-70
2023/08/09 03:58:16;;;;;;;;;;;;;;;23.26;50.29;97309.93;619919;229;62023;-70
2023/08/09 04:00:44;;;;;;;;;;;;;;;23.26;50.60;97309.93;619887;229;64195;-70
2023/08/09 04:03:12;;;;;;;;;;;;;;;23.27;51.57;97311.52;619926;229;62753;-70
2023/08/09 04:05:39;;;;;;;;;;;;;;;23.25;50.95;97311.81;619886;229;64443;-70
2023/08/09 04:08:07;;;;;;;;;;;;;;;23.25;50.43;97311.81;619881;229;64139;-70
2023/08/09 04:10:36;;;;;;;;;;;;;;;23.26;50.93;97309.93;619607;229;62401;-70
2023/08/09 04:13:04;;;;;;;;;;;;;;;23.26;49.96;97309.93;619880;229;64984;-70
2023/08/09 04:15:31;;;;;;;;;;;;;;;23.25;52.55;97314.50;619598;229;64259;-70
2023/08/09 04:17:59;;;;;;;;;;;;;;;23.25;53.08;97309.13;619835;229;63595;-70
2023/08/09 04:20:26;;;;;;;;;;;;;;;23.24;52.46;97317.44;619894;229;64404;-70
2023/08/09 04:22:54;;;;;;;;;;;;;;;23.24;53.55;97312.08;619905;229;64161;-70
2023/08/09 04:25:21;;;;;;;;;;;;;;;23.25;53.55;97321.74;619821;229;62760;-71
2023/08/09 04:27:49;;;;;;;;;;;;;;;23.22;52.92;97317.73;619844;229;65284;-70
2023/08/09 04:30:17;;;;;;;;;;;;;;;23.22;54.22;97320.42;619826;229;64982;-70
2023/08/09 04:32:44;;;;;;;;;;;;;;;23.21;54.13;97318.80;619778;229;65291;-70
2023/08/09 04:35:12;;;;;;;;;;;;;;;23.21;53.80;97312.64;619795;229;65498;-70
2023/08/09 04:37:40;;;;;;;;;;;;;;;23.20;52.60;97317.20;619813;229;64981;-70
2023/08/09 04:40:10;;;;;;;;;;;;;;;23.22;54.07;97320.42;619839;229;62836;-70
2023/08/09 04:42:41;;;;;;;;;;;;;;;23.22;54.06;97314.26;619822;229;65493;-70
2023/08/09 04:45:12;;;;;;;;;;;;;;;23.20;54.20;97309.16;619790;229;65017;-70
2023/08/09 04:47:40;;;;;;;;;;;;;;;23.20;54.04;97314.52;619824;229;65131;-71
2023/08/09 04:50:08;;;;;;;;;;;;;;;23.20;54.19;97314.52;619837;226;65434;-71
2023/08/09 04:52:36;;;;;;;;;;;;;;;23.20;54.24;97311.84;619838;227;62819;-71
2023/08/09 04:55:04;;;;;;;;;;;;;;;23.20;54.11;97317.20;619860;229;62811;-71
2023/08/09 04:57:31;;;;;;;;;;;;;;;23.20;53.80;97308.36;619532;229;65500;-71
2023/08/09 04:59:59;;;;;;;;;;;;;;;23.20;54.62;97314.52;619826;229;63067;-71
2023/08/09 05:02:26;;;;;;;;;;;;;;;23.19;54.58;97306.74;619830;229;64923;-71
2023/08/09 05:04:54;;;;;;;;;;;;;;;23.19;54.88;97304.89;619824;229;65338;-71
2023/08/09 05:07:21;;;;;;;;;;;;;;;23.20;54.72;97305.69;619873;229;62932;-71
2023/08/09 05:09:49;;;;;;;;;;;;;;;23.18;52.10;97302.47;619856;229;64878;-71
2023/08/09 05:12:16;;;;;;;;;;;;;;;23.19;54.87;97310.25;619788;229;65281;-71
2023/08/09 05:14:44;;;;;;;;;;;;;;;23.19;53.93;97306.74;619847;229;62734;-71
2023/08/09 05:17:11;;;;;;;;;;;;;;;23.19;54.49;97302.20;619824;229;62723;-71
2023/08/09 05:19:39;;;;;;;;;;;;;;;23.19;54.78;97304.06;619849;229;64856;-71
2023/08/09 05:22:06;;;;;;;;;;;;;;;23.19;54.74;97304.89;619849;229;65072;-71
2023/08/09 05:24:34;;;;;;;;;;;;;;;23.17;54.53;97307.04;619819;229;63559;-71
2023/08/09 05:27:01;;;;;;;;;;;;;;;23.19;54.74;97304.06;619803;229;65726;-71
2023/08/09 05:29:29;;;;;;;;;;;;;;;23.19;54.75;97306.74;619839;229;64873;-71
2023/08/09 05:31:56;;;;;;;;;;;;;;;23.18;54.51;97302.47;619846;229;64894;-71
2023/08/09 05:34:24;;;;;;;;;;;;;;;23.17;53.17;97304.36;619847;229;65502;-71
2023/08/09 05:36:51;;;;;;;;;;;;;;;23.18;54.51;97303.27;619857;229;65016;-71
2023/08/09 05:39:19;;;;;;;;;;;;;;;23.18;54.72;97308.63;619558;229;64836;-71
2023/08/09 05:41:47;;;;;;;;;;;;;;;23.18;54.63;97303.27;619852;229;65315;-71
2023/08/09 05:44:14;;;;;;;;;;;;;;;23.18;55.28;97307.84;619872;229;62927;-71
2023/08/09 05:46:42;;;;;;;;;;;;;;;23.17;55.25;97312.40;619848;229;64224;-71
2023/08/09 05:49:09;;;;;;;;;;;;;;;23.18;54.97;97305.16;619841;229;65003;-71
2023/08/09 05:51:37;;;;;;;;;;;;;;;23.17;54.69;97301.67;619862;229;62911;-71
2023/08/09 05:54:04;;;;;;;;;;;;;;;23.17;55.10;97296.31;619821;229;62740;-71
2023/08/09 05:56:32;;;;;;;;;;;;;;;23.16;54.89;97297.41;619859;229;67536;-71
2023/08/09 05:58:59;;;;;;;;;;;;;;;23.17;54.63;97307.04;619780;229;62907;-73
2023/08/09 06:01:28;;;;;;;;;;;;;;;23.17;55.00;97307.04;619212;229;62903;-71
2023/08/09 06:03:56;;;;;;;;;;;;;;;23.16;55.39;97305.45;620006;226;65551;-72
2023/08/09 06:06:24;;;;;;;;;;;;;;;23.15;54.53;97306.51;626518;226;64726;-71
2023/08/09 06:08:51;;;;;;;;;;;;;;;23.14;54.83;97304.92;626378;226;62727;-74
2023/08/09 06:11:19;;;;;;;;;;;;;;;23.15;56.22;97301.15;626545;226;63018;-73
2023/08/09 06:13:47;;;;;;;;;;;;;;;23.14;54.24;97304.92;626477;226;63239;-75
2023/08/09 06:16:14;;;;;;;;;;;;;;;23.14;54.46;97301.44;626178;226;62771;-75
2023/08/09 06:18:42;;;;;;;;;;;;;;;23.14;55.54;97296.08;625216;227;63192;-74
2023/08/09 06:21:09;;;;;;;;;;;;;;;23.13;53.66;97294.46;625172;227;64040;-72
2023/08/09 06:23:37;;;;;;;;;;;;;;;23.14;53.27;97291.52;625115;227;62876;-73
2023/08/09 06:26:04;;;;;;;;;;;;;;;23.15;54.12;97294.98;625134;227;63021;-75
2023/08/09 06:28:32;;;;;;;;;;;;;;;23.14;54.03;97290.72;625149;227;62912;-74
2023/08/09 06:30:59;;;;;;;;;;;;;;;23.13;54.30;97289.89;625099;227;62760;-73
2023/08/09 06:33:30;;;;;;;;;;;;;;;23.15;53.55;97286.95;625142;227;62743;-72
2023/08/09 06:35:56;;;;;;;;;;;;;;;23.17;54.28;97282.11;625078;227;64031;-72
2023/08/09 06:38:23;;;;;;;;;;;;;;;23.16;53.95;97281.32;625142;227;62764;-71
2023/08/09 06:40:51;;;;;;;;;;;;;;;23.17;54.08;97279.44;625165;227;63358;-73
2023/08/09 06:43:18;;;;;;;;;;;;;;;23.18;54.49;97287.19;625081;227;62954;-73
2023/08/09 06:45:48;;;;;;;;;;;;;;;23.19;54.97;97277.25;625115;227;62369;-75
2023/08/09 06:48:16;;;;;;;;;;;;;;;23.20;55.12;97276.19;625131;227;65702;-74
2023/08/09 06:50:43;;;;;;;;;;;;;;;23.18;54.90;97276.45;625141;227;65002;-70
2023/08/09 06:53:11;;;;;;;;;;;;;;;23.18;49.98;97267.63;625207;227;64860;-72
2023/08/09 06:55:39;;;;;;;;;;;;;;;23.20;56.82;97271.63;625171;227;65474;-73
2023/08/09 06:58:06;;;;;;;;;;;;;;;23.19;56.32;97267.36;625161;227;64990;-74
2023/08/09 07:00:34;;;;;;;;;;;;;;;23.20;56.83;97266.27;625170;227;64834;-73
2023/08/09 07:03:01;;;;;;;;;;;;;;;23.20;57.05;97271.63;625151;227;63040;-72
2023/08/09 07:05:29;;;;;;;;;;;;;;;23.20;56.96;97268.15;622246;227;65090;-72
2023/08/09 07:07:56;;;;;;;;;;;;;;;23.20;57.26;97268.94;618369;229;64905;-72
2023/08/09 07:10:27;;;;;;;;;;;;;;;23.20;57.59;97260.90;618388;229;65482;-72
2023/08/09 07:12:54;;;;;;;;;;;;;;;23.20;57.30;97262.78;618331;227;65583;-73
2023/08/09 07:15:22;;;;;;;;;;;;;;;23.21;57.90;97259.02;618474;229;63657;-75
2023/08/09 07:17:49;;;;;;;;;;;;;;;23.21;57.83;97256.33;617674;229;65510;-73
2023/08/09 07:20:17;;;;;;;;;;;;;;;23.20;58.32;97258.22;617606;230;62498;-72
2023/08/09 07:22:45;;;;;;;;;;;;;;;23.20;58.23;97263.58;617594;230;63058;-73
2023/08/09 07:25:16;;;;;;;;;;;;;;;23.20;58.05;97255.54;617611;230;62706;-73
2023/08/09 07:27:45;;;;;;;;;;;;;;;23.21;58.16;97254.45;617534;230;65040;-72
2023/08/09 07:30:14;;;;;;;;;;;;;;;23.20;58.04;97252.86;617622;230;64948;-71
2023/08/09 07:32:42;;;;;;;;;;;;;;;23.21;58.34;97242.92;617539;230;63051;-75
2023/08/09 07:35:11;;;;;;;;;;;;;;;23.20;54.58;97246.70;617584;230;64760;-76
2023/08/09 07:37:40;;;;;;;;;;;;;;;23.21;57.52;97243.72;617528;230;64919;-66
2023/08/09 07:40:08;;;;;;;;;;;;;;;23.21;58.61;97238.36;617577;230;62925;-65
2023/08/09 07:42:36;;;;;;;;;;;;;;;23.21;57.29;97237.56;617602;230;65225;-74
2023/08/09 07:45:04;;;;;;;;;;;;;;;23.21;56.67;97237.56;617646;230;65077;-76
2023/08/09 07:47:31;;;;;;;;;;;;;;;23.20;56.21;97242.13;617572;230;63854;-69
2023/08/09 07:50:00;;;;;;;;;;;;;;;23.21;58.00;97229.52;617571;230;62997;-73
2023/08/09 07:52:29;;;;;;;;;;;;;;;23.21;56.54;97237.56;617566;230;63662;-64
2023/08/09 07:54:57;;;;;;;;;;;;;;;23.21;57.16;97235.68;617591;230;65850;-75
2023/08/09 07:57:25;;;;;;;;;;;;;;;23.21;58.10;97238.36;617588;230;63099;-70
2023/08/09 07:59:52;;;;;;;;;;;;;;;23.22;58.84;97233.83;617587;230;65103;-71
2023/08/09 08:02:20;;;;;;;;;;;;;;;23.21;57.09;97234.88;617564;230;65255;-72
2023/08/09 08:04:47;;;;;;;;;;;;;;;23.21;58.87;97230.31;617572;230;64994;-74
2023/08/09 08:07:15;;;;;;;;;;;;;;;23.20;53.96;97225.25;617625;230;64817;-73
2023/08/09 08:09:42;;;;;;;;;;;;;;;23.22;57.50;97234.62;617458;230;63451;-72
2023/08/09 08:12:11;;;;;;;;;;;;;;;23.22;53.59;97228.46;617368;230;62807;-73
2023/08/09 08:14:39;;;;;;;;;;;;;;;23.21;51.28;97224.95;617621;230;66042;-72
2023/08/09 08:17:06;;;;;;;;;;;;;;;23.24;56.49;97221.74;618543;229;65466;-73
2023/08/09 08:19:34;;;;;;;;;;;;;;;23.25;57.55;97222.53;619731;229;65021;-74
2023/08/09 08:22:03;;;;;;;;;;;;;;;23.22;57.58;97223.89;619683;229;64899;-73
2023/08/09 08:24:30;;;;;;;;;;;;;;;23.23;57.54;97213.97;619627;229;63256;-73
2023/08/09 08:26:58;;;;;;;;;;;;;;;23.22;57.28;97215.05;619730;229;62974;-73
2023/08/09 08:29:25;;;;;;;;;;;;;;;23.22;57.86;97218.53;619746;229;62829;-74
2023/08/09 08:31:53;;;;;;;;;;;;;;;23.22;58.22;97223.89;619746;229;65533;-74
2023/08/09 08:34:23;;;;;;;;;;;;;;;23.22;58.22;97213.17;619773;229;64830;-74
2023/08/09 08:36:51;;;;;;;;;;;;;;;23.22;58.14;97223.89;619739;229;62806;-73
2023/08/09 08:39:19;;;;;;;;;;;;;;;23.24;57.99;97218.23;619752;229;63014;-74
2023/08/09 08:41:49;;;;;;;;;;;;;;;23.24;58.37;97212.88;619670;229;65546;-68
2023/08/09 08:44:16;;;;;;;;;;;;;;;23.22;58.39;97218.53;619712;229;65049;-75
2023/08/09 08:46:44;;;;;;;;;;;;;;;23.23;58.43;97216.64;619746;229;65779;-76
2023/08/09 08:49:13;;;;;;;;;;;;;;;23.24;58.89;97204.83;619799;229;62877;-77
2023/08/09 08:51:42;;;;;;;;;;;;;;;23.24;58.76;97212.88;619687;229;62917;-76
2023/08/09 08:54:12;;;;;;;;;;;;;;;23.24;59.10;97210.19;619729;229;63029;-75
2023/08/09 08:56:40;;;;;;;;;;;;;;;23.24;58.87;97204.83;620889;226;65109;-73
2023/08/09 08:59:08;;;;;;;;;;;;;;;23.23;58.75;97203.23;624539;226;65012;-75
2023/08/09 09:01:36;;;;;;;;;;;;;;;23.23;59.07;97204.03;621209;226;62731;-78
2023/08/09 09:04:03;;;;;;;;;;;;;;;23.23;58.93;97197.88;621289;226;65257;-72
2023/08/09 09:06:31;;;;;;;;;;;;;;;23.22;59.06;97197.08;620315;226;64985;-75
2023/08/09 09:09:02;;;;;;;;;;;;;;;23.23;59.21;97197.88;621431;226;65699;-75
2023/08/09 09:11:29;;;;;;;;;;;;;;;23.23;59.63;97192.52;621105;226;65581;-75
2023/08/09 09:13:57;;;;;;;;;;;;;;;23.24;59.91;97188.73;610912;232;62804;-74
2023/08/09 09:16:24;;;;;;;;;;;;;;;23.24;59.42;97192.25;610600;232;65453;-75
2023/08/09 09:18:52;;;;;;;;;;;;;;;23.24;59.51;97184.20;608876;232;65034;-67
2023/08/09 09:21:19;;;;;;;;;;;;;;;23.24;59.64;97186.06;609643;232;65079;-73
2023/08/09 09:23:47;;;;;;;;;;;;;;;23.25;59.86;97179.63;606076;232;65496;-74
2023/08/09 09:26:15;;;;;;;;;;;;;;;23.24;60.01;97176.16;610095;231;61373;-73
2023/08/09 09:28:44;;;;;;;;;;;;;;;23.25;60.49;97185.00;611046;231;60229;-73
2023/08/09 09:31:13;;;;;;;;;;;;;;;23.24;60.14;97184.20;609519;231;65483;-74
2023/08/09 09:33:43;;;;;;;;;;;;;;;23.24;58.38;97181.52;609252;231;63012;-73
2023/08/09 09:36:11;;;;;;;;;;;;;;;23.24;57.81;97170.80;610139;231;62886;-74
2023/08/09 09:38:39;;;;;;;;;;;;;;;23.25;55.46;97172.38;611376;231;65522;-77
2023/08/09 09:41:10;;;;;;;;;;;;;;;23.25;56.75;97169.70;609876;231;63183;-77
2023/08/09 09:43:47;;;;;;;;;;;;;;;23.28;58.84;97167.55;609341;231;64882;-75
2023/08/09 09:46:19;;;;;;;;;;;;;;;23.28;56.79;97162.19;609700;231;62947;-73
2023/08/09 09:48:48;;;;;;;;;;;;;;;23.28;57.98;97160.30;608669;231;64768;-74
2023/08/09 09:51:17;;;;;;;;;;;;;;;23.28;58.44;97157.61;608291;231;64832;-73
2023/08/09 09:53:46;;;;;;;;;;;;;;;23.29;58.43;97166.45;610015;231;65511;-73
2023/08/09 09:56:14;;;;;;;;;;;;;;;23.28;58.53;97152.25;610634;231;65579;-73
2023/08/09 09:58:42;;;;;;;;;;;;;;;23.28;58.11;97154.14;611779;231;64983;-72
2023/08/09 10:01:11;;;;;;;;;;;;;;;23.28;57.73;97154.94;609497;231;65598;-73
2023/08/09 10:03:42;;;;;;;;;;;;;;;23.28;57.75;97159.50;612625;231;63183;-73
2023/08/09 10:06:13;;;;;;;;;;;;;;;23.28;56.87;97157.61;611030;231;66306;-73
2023/08/09 10:08:41;;;;;;;;;;;;;;;23.29;58.67;97155.73;608813;231;65531;-70
2023/08/09 10:11:09;;;;;;;;;;;;;;;23.28;58.28;97146.89;607354;233;63819;-73
2023/08/09 10:13:39;;;;;;;;;;;;;;;23.28;59.07;97152.25;607371;233;62774;-75
2023/08/09 10:16:07;;;;;;;;;;;;;;;23.28;59.27;97154.14;607624;232;61508;-74
2023/08/09 10:18:36;;;;;;;;;;;;;;;23.28;59.09;97146.09;610716;232;62920;-76
2023/08/09 10:21:04;;;;;;;;;;;;;;;23.28;59.85;97138.05;610537;229;62873;-71
2023/08/09 10:23:32;;;;;;;;;;;;;;;23.27;59.02;97139.91;610666;229;65712;-74
2023/08/09 10:26:00;;;;;;;;;;;;;;;23.26;59.28;97133.75;610676;229;64829;-72
2023/08/09 10:28:43;;;;;;;;;;;;;;;23.27;58.44;97126.50;610694;230;64907;-74
2023/08/09 10:31:10;;;;;;;;;;;;;;;23.26;59.14;97123.03;611990;229;65500;-77
2023/08/09 10:33:41;;;;;;;;;;;;;;;23.27;60.05;97126.50;610839;232;65131;-78
2023/08/09 10:36:09;;;;;;;;;;;;;;;23.27;59.60;97118.45;610806;232;62828;-75
2023/08/09 10:38:44;;;;;;;;;;;;;;;23.26;59.60;97120.34;610768;232;64057;-74
2023/08/09 10:41:14;;;;;;;;;;;;;;;23.26;60.53;97114.98;612941;229;65366;-72
2023/08/09 10:43:42;;;;;;;;;;;;;;;23.27;60.58;97113.09;610809;232;64987;-73
2023/08/09 10:46:20;;;;;;;;;;;;;;;23.25;61.03;97113.39;613172;229;65486;-72
2023/08/09 10:48:54;;;;;;;;;;;;;;;23.25;61.35;97110.72;614667;229;62950;-73
2023/08/09 10:51:23;;;;;;;;;;;;;;;23.24;61.20;97114.48;610563;232;64915;-74
2023/08/09 10:53:51;;;;;;;;;;;;;;;23.25;61.14;97112.60;610668;232;63916;-74
2023/08/09 10:56:29;;;;;;;;;;;;;;;23.24;60.53;97114.48;610858;232;62928;-73
2023/08/09 10:58:58;;;;;;;;;;;;;;;23.26;57.39;97106.94;610696;232;64966;-73
2023/08/09 11:01:28;;;;;;;;;;;;;;;23.30;60.35;97109.88;610568;232;65257;-72
2023/08/09 11:03:57;;;;;;;;;;;;;;;23.30;59.47;97098.33;610765;232;64853;-74
2023/08/09 11:06:35;;;;;;;;;;;;;;;23.31;59.10;97086.53;610755;232;65023;-65
2023/08/09 11:09:11;;;;;;;;;;;;;;;23.33;59.06;97095.10;610534;232;65404;-63
2023/08/09 11:11:40;;;;;;;;;;;;;;;23.33;58.89;97087.05;610814;232;65583;-64
2023/08/09 11:14:08;;;;;;;;;;;;;;;23.34;59.28;97080.60;610745;232;62955;-64
2023/08/09 11:16:36;;;;;;;;;;;;;;;23.34;58.29;97076.03;609319;232;63307;-64
2023/08/09 11:19:04;;;;;;;;;;;;;;;23.35;58.13;97069.57;606086;234;63172;-64
2023/08/09 11:21:33;;;;;;;;;;;;;;;23.36;56.90;97073.87;605985;234;65213;-64
2023/08/09 11:24:01;;;;;;;;;;;;;;;23.37;59.29;97072.78;605517;234;65477;-64
2023/08/09 11:26:28;;;;;;;;;;;;;;;23.39;59.39;97069.82;605838;234;65816;-64
2023/08/09 11:28:56;;;;;;;;;;;;;;;23.38;59.31;97060.98;605990;234;65033;-65
2023/08/09 11:31:25;;;;;;;;;;;;;;;23.39;59.07;97064.45;606010;234;64918;-70
2023/08/09 11:33:57;;;;;;;;;;;;;;;23.38;58.35;97057.48;603673;234;64977;-71
2023/08/09 11:36:29;;;;;;;;;;;;;;;23.39;58.67;97056.41;602333;234;62865;-73
2023/08/09 11:38:58;;;;;;;;;;;;;;;23.40;58.99;97058.00;603439;234;63442;-73
2023/08/09 11:41:26;;;;;;;;;;;;;;;23.40;59.42;97052.64;600398;234;62724;-73
2023/08/09 11:43:54;;;;;;;;;;;;;;;23.39;59.55;97054.52;603097;234;64940;-74
2023/08/09 11:46:22;;;;;;;;;;;;;;;23.40;58.82;97052.64;602582;234;65050;-74
2023/08/09 11:48:51;;;;;;;;;;;;;;;23.40;58.83;97045.38;603052;234;64807;-75
2023/08/09 11:51:20;;;;;;;;;;;;;;;23.40;59.22;97045.38;606977;234;62781;-67
2023/08/09 11:53:48;;;;;;;;;;;;;;;23.40;57.28;97047.27;607054;234;65504;-69
2023/08/09 11:56:23;;;;;;;;;;;;;;;23.42;58.34;97053.16;606912;234;65976;-73
2023/08/09 11:58:49;;;;;;;;;;;;;;;23.42;58.28;97055.84;606825;234;64913;-72
2023/08/09 12:01:21;;;;;;;;;;;;;;;23.42;59.06;97048.59;606921;234;62964;-74
2023/08/09 12:03:50;;;;;;;;;;;;;;;23.42;58.83;97045.11;606915;234;63005;-72
2023/08/09 12:06:22;;;;;;;;;;;;;;;23.43;58.79;97044.02;606910;234;65002;-72
2023/08/09 12:08:49;;;;;;;;;;;;;;;23.42;58.88;97042.43;605614;234;65557;-74
2023/08/09 12:11:17;;;;;;;;;;;;;;;23.42;58.70;97048.59;607000;234;62932;-72
2023/08/09 12:13:44;;;;;;;;;;;;;;;23.42;58.77;97051.27;607006;234;64918;-73
2023/08/09 12:16:12;;;;;;;;;;;;;;;23.43;58.81;97041.33;607748;231;65509;-73
2023/08/09 12:18:39;;;;;;;;;;;;;;;23.43;58.85;97041.33;612869;231;64883;-74
2023/08/09 12:21:08;;;;;;;;;;;;;;;23.44;58.70;97037.59;612836;231;64943;-73
2023/08/09 12:23:36;;;;;;;;;;;;;;;23.43;58.80;97036.77;609534;231;65461;-71
2023/08/09 12:26:07;;;;;;;;;;;;;;;23.43;58.52;97030.61;605892;234;63490;-72
2023/08/09 12:28:34;;;;;;;;;;;;;;;23.43;58.67;97027.92;605249;234;62761;-72
2023/08/09 12:31:01;;;;;;;;;;;;;;;23.44;58.61;97026.86;605935;234;65571;-72
2023/08/09 12:33:29;;;;;;;;;;;;;;;23.44;58.45;97026.86;605934;234;65028;-72
2023/08/09 12:35:56;;;;;;;;;;;;;;;23.44;58.94;97030.34;605937;234;64903;-71
2023/08/09 12:38:24;;;;;;;;;;;;;;;23.43;57.47;97026.03;605945;234;63058;-71
2023/08/09 12:40:51;;;;;;;;;;;;;;;23.44;56.80;97024.97;605910;234;64900;-71
2023/08/09 12:43:19;;;;;;;;;;;;;;;23.44;56.28;97024.97;605976;234;62727;-71
2023/08/09 12:45:46;;;;;;;;;;;;;;;23.45;56.94;97023.88;605947;234;62748;-71
2023/08/09 12:48:15;;;;;;;;;;;;;;;23.46;57.42;97013.94;605947;234;62906;-71
2023/08/09 12:50:42;;;;;;;;;;;;;;;23.46;57.20;97014.77;605894;234;66061;-72
2023/08/09 12:53:10;;;;;;;;;;;;;;;23.46;57.62;97006.72;606853;231;65775;-72
2023/08/09 12:55:38;;;;;;;;;;;;;;;23.46;56.35;97009.40;607041;231;67030;-72
2023/08/09 12:58:05;;;;;;;;;;;;;;;23.47;55.90;97010.19;607402;231;64906;-70
2023/08/09 13:00:33;;;;;;;;;;;;;;;23.48;56.51;97006.41;605888;234;63926;-72
2023/08/09 13:03:00;;;;;;;;;;;;;;;23.48;56.20;97006.41;605977;234;64986;-72
2023/08/09 13:05:28;;;;;;;;;;;;;;;23.48;57.25;97001.05;605989;234;63633;-72